sensor_id;sensor_type;location;lat;lon;timestamp;P1;durP1;ratioP1;P2;durP2;ratioP2
45893;SDS011;31603;51.148;16.932;2023-04-03T00:01:47;9.30;;;2.22;;
45893;SDS011;31603;51.148;16.932;2023-04-03T00:04:15;6.82;;;2.58;;
45893;SDS011;31603;51.148;16.932;2023-04-03T00:06:43;8.20;;;2.08;;
45893;SDS011;31603;51.148;16.932;2023-04-03T00:09:14;9.68;;;2.85;;
45893;SDS011;31603;51.148;16.932;2023-04-03T00:11:40;5.70;;;2.60;;
45893;SDS011;31603;51.148;16.932;2023-04-03T00:14:07;6.28;;;2.00;;
45893;SDS011;31603;51.148;16.932;2023-04-03T00:16:33;6.45;;;2.03;;
45893;SDS011;31603;51.148;16.932;2023-04-03T00:18:59;6.80;;;2.50;;
45893;SDS011;31603;51.148;16.932;2023-04-03T00:21:27;8.20;;;2.50;;
45893;SDS011;31603;51.148;16.932;2023-04-03T00:23:56;8.10;;;2.53;;
45893;SDS011;31603;51.148;16.932;2023-04-03T00:26:23;5.57;;;2.22;;
45893;SDS011;31603;51.148;16.932;2023-04-03T00:28:51;7.70;;;2.65;;
45893;SDS011;31603;51.148;16.932;2023-04-03T00:31:17;7.63;;;2.47;;
45893;SDS011;31603;51.148;16.932;2023-04-03T00:33:44;7.30;;;2.30;;
45893;SDS011;31603;51.148;16.932;2023-04-03T00:36:11;7.63;;;2.63;;
45893;SDS011;31603;51.148;16.932;2023-04-03T00:38:38;7.70;;;2.70;;
45893;SDS011;31603;51.148;16.932;2023-04-03T00:41:06;4.28;;;1.88;;
45893;SDS011;31603;51.148;16.932;2023-04-03T00:43:32;9.32;;;2.35;;
45893;SDS011;31603;51.148;16.932;2023-04-03T00:46:00;8.73;;;2.08;;
45893;SDS011;31603;51.148;16.932;2023-04-03T00:48:28;8.18;;;2.03;;
45893;SDS011;31603;51.148;16.932;2023-04-03T00:50:55;6.32;;;2.17;;
45893;SDS011;31603;51.148;16.932;2023-04-03T00:53:22;8.23;;;2.00;;
45893;SDS011;31603;51.148;16.932;2023-04-03T00:55:49;7.18;;;2.80;;
45893;SDS011;31603;51.148;16.932;2023-04-03T00:58:17;7.93;;;2.10;;
45893;SDS011;31603;51.148;16.932;2023-04-03T01:00:46;5.57;;;2.30;;
45893;SDS011;31603;51.148;16.932;2023-04-03T01:03:14;8.60;;;2.13;;
45893;SDS011;31603;51.148;16.932;2023-04-03T01:05:44;6.13;;;2.30;;
45893;SDS011;31603;51.148;16.932;2023-04-03T01:08:11;10.48;;;2.50;;
45893;SDS011;31603;51.148;16.932;2023-04-03T01:10:38;6.32;;;1.98;;
45893;SDS011;31603;51.148;16.932;2023-04-03T01:13:18;8.75;;;2.72;;
45893;SDS011;31603;51.148;16.932;2023-04-03T01:15:45;9.23;;;2.47;;
45893;SDS011;31603;51.148;16.932;2023-04-03T01:18:11;9.02;;;2.17;;
45893;SDS011;31603;51.148;16.932;2023-04-03T01:23:24;7.35;;;2.30;;
45893;SDS011;31603;51.148;16.932;2023-04-03T01:25:52;5.47;;;2.30;;
45893;SDS011;31603;51.148;16.932;2023-04-03T01:28:21;11.27;;;2.97;;
45893;SDS011;31603;51.148;16.932;2023-04-03T01:30:48;8.02;;;2.50;;
45893;SDS011;31603;51.148;16.932;2023-04-03T01:33:17;6.07;;;2.72;;
45893;SDS011;31603;51.148;16.932;2023-04-03T01:35:44;5.22;;;1.90;;
45893;SDS011;31603;51.148;16.932;2023-04-03T01:38:10;9.20;;;2.80;;
45893;SDS011;31603;51.148;16.932;2023-04-03T01:40:37;8.27;;;2.10;;
45893;SDS011;31603;51.148;16.932;2023-04-03T01:43:03;4.40;;;2.05;;
45893;SDS011;31603;51.148;16.932;2023-04-03T01:45:29;8.45;;;2.88;;
45893;SDS011;31603;51.148;16.932;2023-04-03T01:47:56;5.63;;;2.40;;
45893;SDS011;31603;51.148;16.932;2023-04-03T01:50:23;6.60;;;2.28;;
45893;SDS011;31603;51.148;16.932;2023-04-03T01:52:50;12.23;;;4.22;;
45893;SDS011;31603;51.148;16.932;2023-04-03T01:55:16;9.02;;;2.65;;
45893;SDS011;31603;51.148;16.932;2023-04-03T01:57:43;11.55;;;2.58;;
45893;SDS011;31603;51.148;16.932;2023-04-03T02:00:10;4.47;;;2.22;;
45893;SDS011;31603;51.148;16.932;2023-04-03T02:02:39;6.82;;;2.33;;
45893;SDS011;31603;51.148;16.932;2023-04-03T02:05:06;7.75;;;3.17;;
45893;SDS011;31603;51.148;16.932;2023-04-03T02:07:34;6.85;;;2.50;;
45893;SDS011;31603;51.148;16.932;2023-04-03T02:10:00;9.32;;;3.03;;
45893;SDS011;31603;51.148;16.932;2023-04-03T02:12:27;10.68;;;2.78;;
45893;SDS011;31603;51.148;16.932;2023-04-03T02:14:53;10.30;;;2.92;;
45893;SDS011;31603;51.148;16.932;2023-04-03T02:17:20;7.00;;;2.95;;
45893;SDS011;31603;51.148;16.932;2023-04-03T02:19:46;7.88;;;2.70;;
45893;SDS011;31603;51.148;16.932;2023-04-03T02:22:13;10.02;;;2.65;;
45893;SDS011;31603;51.148;16.932;2023-04-03T02:24:41;6.88;;;2.78;;
45893;SDS011;31603;51.148;16.932;2023-04-03T02:27:08;8.88;;;3.30;;
45893;SDS011;31603;51.148;16.932;2023-04-03T02:29:34;8.43;;;2.75;;
45893;SDS011;31603;51.148;16.932;2023-04-03T02:32:01;13.73;;;4.15;;
45893;SDS011;31603;51.148;16.932;2023-04-03T02:34:27;12.07;;;3.22;;
45893;SDS011;31603;51.148;16.932;2023-04-03T02:36:53;11.85;;;3.08;;
45893;SDS011;31603;51.148;16.932;2023-04-03T02:39:19;11.77;;;2.60;;
45893;SDS011;31603;51.148;16.932;2023-04-03T02:41:47;7.03;;;3.25;;
45893;SDS011;31603;51.148;16.932;2023-04-03T02:44:14;9.00;;;2.90;;
45893;SDS011;31603;51.148;16.932;2023-04-03T02:46:40;6.18;;;3.13;;
45893;SDS011;31603;51.148;16.932;2023-04-03T02:49:07;9.70;;;3.20;;
45893;SDS011;31603;51.148;16.932;2023-04-03T02:51:33;7.60;;;2.70;;
45893;SDS011;31603;51.148;16.932;2023-04-03T02:53:59;9.77;;;2.95;;
45893;SDS011;31603;51.148;16.932;2023-04-03T02:56:28;8.02;;;2.83;;
45893;SDS011;31603;51.148;16.932;2023-04-03T02:58:56;9.75;;;2.95;;
45893;SDS011;31603;51.148;16.932;2023-04-03T03:01:22;10.35;;;3.22;;
45893;SDS011;31603;51.148;16.932;2023-04-03T03:03:49;10.93;;;4.38;;
45893;SDS011;31603;51.148;16.932;2023-04-03T03:06:16;12.35;;;3.08;;
45893;SDS011;31603;51.148;16.932;2023-04-03T03:08:43;8.52;;;2.40;;
45893;SDS011;31603;51.148;16.932;2023-04-03T03:11:10;12.32;;;3.05;;
45893;SDS011;31603;51.148;16.932;2023-04-03T03:13:37;9.98;;;3.35;;
45893;SDS011;31603;51.148;16.932;2023-04-03T03:16:07;8.68;;;3.03;;
45893;SDS011;31603;51.148;16.932;2023-04-03T03:18:34;9.40;;;2.97;;
45893;SDS011;31603;51.148;16.932;2023-04-03T03:21:01;8.02;;;2.50;;
45893;SDS011;31603;51.148;16.932;2023-04-03T03:23:28;11.88;;;3.55;;
45893;SDS011;31603;51.148;16.932;2023-04-03T03:25:55;8.73;;;2.88;;
45893;SDS011;31603;51.148;16.932;2023-04-03T03:28:22;8.95;;;3.20;;
45893;SDS011;31603;51.148;16.932;2023-04-03T03:30:48;9.82;;;4.32;;
45893;SDS011;31603;51.148;16.932;2023-04-03T03:33:16;13.85;;;4.38;;
45893;SDS011;31603;51.148;16.932;2023-04-03T03:35:44;12.77;;;5.35;;
45893;SDS011;31603;51.148;16.932;2023-04-03T03:38:12;18.10;;;4.45;;
45893;SDS011;31603;51.148;16.932;2023-04-03T03:40:38;13.20;;;4.25;;
45893;SDS011;31603;51.148;16.932;2023-04-03T03:43:05;13.05;;;5.70;;
45893;SDS011;31603;51.148;16.932;2023-04-03T03:45:31;9.43;;;4.53;;
45893;SDS011;31603;51.148;16.932;2023-04-03T03:47:57;8.23;;;3.90;;
45893;SDS011;31603;51.148;16.932;2023-04-03T03:50:25;15.73;;;4.90;;
45893;SDS011;31603;51.148;16.932;2023-04-03T03:52:51;15.80;;;6.20;;
45893;SDS011;31603;51.148;16.932;2023-04-03T03:55:17;17.13;;;6.90;;
45893;SDS011;31603;51.148;16.932;2023-04-03T03:57:44;16.08;;;6.03;;
45893;SDS011;31603;51.148;16.932;2023-04-03T04:00:11;13.38;;;5.47;;
45893;SDS011;31603;51.148;16.932;2023-04-03T04:02:38;12.73;;;4.65;;
45893;SDS011;31603;51.148;16.932;2023-04-03T04:05:05;10.10;;;4.30;;
45893;SDS011;31603;51.148;16.932;2023-04-03T04:07:32;7.22;;;3.58;;
45893;SDS011;31603;51.148;16.932;2023-04-03T04:09:59;16.38;;;6.28;;
45893;SDS011;31603;51.148;16.932;2023-04-03T04:12:25;13.10;;;4.07;;
45893;SDS011;31603;51.148;16.932;2023-04-03T04:14:51;11.10;;;4.18;;
45893;SDS011;31603;51.148;16.932;2023-04-03T04:17:18;10.25;;;3.83;;
45893;SDS011;31603;51.148;16.932;2023-04-03T04:19:44;10.70;;;4.03;;
45893;SDS011;31603;51.148;16.932;2023-04-03T04:22:11;10.55;;;4.03;;
45893;SDS011;31603;51.148;16.932;2023-04-03T04:24:39;12.10;;;4.55;;
45893;SDS011;31603;51.148;16.932;2023-04-03T04:27:05;10.82;;;3.78;;
45893;SDS011;31603;51.148;16.932;2023-04-03T04:29:31;14.30;;;4.35;;
45893;SDS011;31603;51.148;16.932;2023-04-03T04:32:00;8.00;;;4.15;;
45893;SDS011;31603;51.148;16.932;2023-04-03T04:34:26;11.23;;;3.55;;
45893;SDS011;31603;51.148;16.932;2023-04-03T04:36:53;10.38;;;4.35;;
45893;SDS011;31603;51.148;16.932;2023-04-03T04:39:19;11.35;;;3.55;;
45893;SDS011;31603;51.148;16.932;2023-04-03T04:41:49;12.23;;;4.20;;
45893;SDS011;31603;51.148;16.932;2023-04-03T04:44:15;17.42;;;6.70;;
45893;SDS011;31603;51.148;16.932;2023-04-03T04:46:42;12.57;;;5.97;;
45893;SDS011;31603;51.148;16.932;2023-04-03T04:49:09;14.80;;;5.65;;
45893;SDS011;31603;51.148;16.932;2023-04-03T04:51:35;14.18;;;7.32;;
45893;SDS011;31603;51.148;16.932;2023-04-03T04:54:01;16.88;;;9.15;;
45893;SDS011;31603;51.148;16.932;2023-04-03T04:56:28;16.67;;;9.20;;
45893;SDS011;31603;51.148;16.932;2023-04-03T04:58:55;13.77;;;6.93;;
45893;SDS011;31603;51.148;16.932;2023-04-03T05:01:22;11.55;;;6.60;;
45893;SDS011;31603;51.148;16.932;2023-04-03T05:03:48;17.05;;;6.57;;
45893;SDS011;31603;51.148;16.932;2023-04-03T05:06:15;11.75;;;6.68;;
45893;SDS011;31603;51.148;16.932;2023-04-03T05:08:41;12.73;;;6.40;;
45893;SDS011;31603;51.148;16.932;2023-04-03T05:11:07;9.68;;;4.43;;
45893;SDS011;31603;51.148;16.932;2023-04-03T05:13:34;10.23;;;4.60;;
45893;SDS011;31603;51.148;16.932;2023-04-03T05:16:02;10.13;;;3.67;;
45893;SDS011;31603;51.148;16.932;2023-04-03T05:18:28;10.05;;;3.20;;
45893;SDS011;31603;51.148;16.932;2023-04-03T05:20:54;8.40;;;4.43;;
45893;SDS011;31603;51.148;16.932;2023-04-03T05:23:21;11.32;;;4.63;;
45893;SDS011;31603;51.148;16.932;2023-04-03T05:25:47;10.95;;;4.53;;
45893;SDS011;31603;51.148;16.932;2023-04-03T05:28:16;11.25;;;4.85;;
45893;SDS011;31603;51.148;16.932;2023-04-03T05:30:42;13.02;;;4.28;;
45893;SDS011;31603;51.148;16.932;2023-04-03T05:33:10;11.25;;;3.67;;
45893;SDS011;31603;51.148;16.932;2023-04-03T05:35:36;11.98;;;5.22;;
45893;SDS011;31603;51.148;16.932;2023-04-03T05:38:04;12.57;;;5.93;;
45893;SDS011;31603;51.148;16.932;2023-04-03T05:40:31;15.75;;;5.55;;
45893;SDS011;31603;51.148;16.932;2023-04-03T05:42:57;14.38;;;4.43;;
45893;SDS011;31603;51.148;16.932;2023-04-03T05:45:23;12.43;;;4.55;;
45893;SDS011;31603;51.148;16.932;2023-04-03T05:47:50;10.93;;;3.85;;
45893;SDS011;31603;51.148;16.932;2023-04-03T05:50:18;8.63;;;3.85;;
45893;SDS011;31603;51.148;16.932;2023-04-03T05:52:45;10.05;;;3.75;;
45893;SDS011;31603;51.148;16.932;2023-04-03T05:55:13;12.48;;;5.15;;
45893;SDS011;31603;51.148;16.932;2023-04-03T05:57:39;13.75;;;3.65;;
45893;SDS011;31603;51.148;16.932;2023-04-03T06:00:07;30.05;;;5.85;;
45893;SDS011;31603;51.148;16.932;2023-04-03T06:02:35;22.08;;;4.28;;
45893;SDS011;31603;51.148;16.932;2023-04-03T06:05:01;23.90;;;5.50;;
45893;SDS011;31603;51.148;16.932;2023-04-03T06:07:29;20.20;;;4.40;;
45893;SDS011;31603;51.148;16.932;2023-04-03T06:09:56;23.50;;;5.65;;
45893;SDS011;31603;51.148;16.932;2023-04-03T06:12:26;21.52;;;4.95;;
45893;SDS011;31603;51.148;16.932;2023-04-03T06:14:53;16.92;;;4.45;;
45893;SDS011;31603;51.148;16.932;2023-04-03T06:17:20;24.55;;;4.57;;
45893;SDS011;31603;51.148;16.932;2023-04-03T06:19:47;27.17;;;6.90;;
45893;SDS011;31603;51.148;16.932;2023-04-03T06:22:14;18.08;;;5.55;;
45893;SDS011;31603;51.148;16.932;2023-04-03T06:24:41;27.02;;;4.53;;
45893;SDS011;31603;51.148;16.932;2023-04-03T06:27:17;26.55;;;5.40;;
45893;SDS011;31603;51.148;16.932;2023-04-03T06:29:43;29.23;;;5.07;;
45893;SDS011;31603;51.148;16.932;2023-04-03T06:32:10;27.00;;;5.47;;
45893;SDS011;31603;51.148;16.932;2023-04-03T06:34:37;20.33;;;5.90;;
45893;SDS011;31603;51.148;16.932;2023-04-03T06:37:03;12.40;;;4.65;;
45893;SDS011;31603;51.148;16.932;2023-04-03T06:39:29;13.00;;;5.88;;
45893;SDS011;31603;51.148;16.932;2023-04-03T06:41:57;12.98;;;4.95;;
45893;SDS011;31603;51.148;16.932;2023-04-03T06:44:23;11.60;;;4.32;;
45893;SDS011;31603;51.148;16.932;2023-04-03T06:46:49;10.48;;;3.95;;
45893;SDS011;31603;51.148;16.932;2023-04-03T06:49:16;7.97;;;3.22;;
45893;SDS011;31603;51.148;16.932;2023-04-03T06:51:43;7.55;;;3.70;;
45893;SDS011;31603;51.148;16.932;2023-04-03T06:54:09;9.23;;;4.38;;
45893;SDS011;31603;51.148;16.932;2023-04-03T06:56:35;8.35;;;3.47;;
45893;SDS011;31603;51.148;16.932;2023-04-03T06:59:05;7.15;;;3.40;;
45893;SDS011;31603;51.148;16.932;2023-04-03T07:01:31;9.05;;;3.10;;
45893;SDS011;31603;51.148;16.932;2023-04-03T07:03:57;16.33;;;5.00;;
45893;SDS011;31603;51.148;16.932;2023-04-03T07:06:25;9.85;;;3.40;;
45893;SDS011;31603;51.148;16.932;2023-04-03T07:08:52;8.63;;;2.95;;
45893;SDS011;31603;51.148;16.932;2023-04-03T07:11:19;8.07;;;3.35;;
45893;SDS011;31603;51.148;16.932;2023-04-03T07:13:46;16.65;;;4.18;;
45893;SDS011;31603;51.148;16.932;2023-04-03T07:16:14;12.65;;;3.65;;
45893;SDS011;31603;51.148;16.932;2023-04-03T07:18:41;6.25;;;3.20;;
45893;SDS011;31603;51.148;16.932;2023-04-03T07:21:07;5.40;;;3.22;;
45893;SDS011;31603;51.148;16.932;2023-04-03T07:23:33;9.05;;;3.17;;
45893;SDS011;31603;51.148;16.932;2023-04-03T07:26:00;8.88;;;3.10;;
45893;SDS011;31603;51.148;16.932;2023-04-03T07:28:27;7.93;;;3.47;;
45893;SDS011;31603;51.148;16.932;2023-04-03T07:30:54;7.35;;;3.85;;
45893;SDS011;31603;51.148;16.932;2023-04-03T07:33:22;7.45;;;3.65;;
45893;SDS011;31603;51.148;16.932;2023-04-03T07:35:49;9.07;;;3.08;;
45893;SDS011;31603;51.148;16.932;2023-04-03T07:38:16;7.40;;;2.50;;
45893;SDS011;31603;51.148;16.932;2023-04-03T07:40:45;5.50;;;2.67;;
45893;SDS011;31603;51.148;16.932;2023-04-03T07:43:11;7.95;;;2.50;;
45893;SDS011;31603;51.148;16.932;2023-04-03T07:45:37;5.28;;;3.20;;
45893;SDS011;31603;51.148;16.932;2023-04-03T07:48:04;6.85;;;3.33;;
45893;SDS011;31603;51.148;16.932;2023-04-03T07:50:35;12.93;;;4.90;;
45893;SDS011;31603;51.148;16.932;2023-04-03T07:53:01;9.63;;;3.08;;
45893;SDS011;31603;51.148;16.932;2023-04-03T07:55:32;4.28;;;2.40;;
45893;SDS011;31603;51.148;16.932;2023-04-03T07:57:59;7.70;;;2.97;;
45893;SDS011;31603;51.148;16.932;2023-04-03T08:00:28;6.82;;;2.92;;
45893;SDS011;31603;51.148;16.932;2023-04-03T08:02:54;8.07;;;2.92;;
45893;SDS011;31603;51.148;16.932;2023-04-03T08:05:21;7.97;;;3.20;;
45893;SDS011;31603;51.148;16.932;2023-04-03T08:07:49;10.15;;;2.50;;
45893;SDS011;31603;51.148;16.932;2023-04-03T08:10:15;7.43;;;2.63;;
45893;SDS011;31603;51.148;16.932;2023-04-03T08:12:42;13.95;;;4.18;;
45893;SDS011;31603;51.148;16.932;2023-04-03T08:15:11;8.07;;;2.33;;
45893;SDS011;31603;51.148;16.932;2023-04-03T08:17:38;6.32;;;2.65;;
45893;SDS011;31603;51.148;16.932;2023-04-03T08:20:04;7.93;;;2.70;;
45893;SDS011;31603;51.148;16.932;2023-04-03T08:22:33;11.70;;;2.67;;
45893;SDS011;31603;51.148;16.932;2023-04-03T08:25:01;6.05;;;2.10;;
45893;SDS011;31603;51.148;16.932;2023-04-03T08:27:27;7.10;;;2.80;;
45893;SDS011;31603;51.148;16.932;2023-04-03T08:29:54;7.53;;;2.63;;
45893;SDS011;31603;51.148;16.932;2023-04-03T08:32:20;6.55;;;2.38;;
45893;SDS011;31603;51.148;16.932;2023-04-03T08:34:48;8.18;;;3.78;;
45893;SDS011;31603;51.148;16.932;2023-04-03T08:37:14;7.13;;;3.00;;
45893;SDS011;31603;51.148;16.932;2023-04-03T08:39:48;8.43;;;3.17;;
45893;SDS011;31603;51.148;16.932;2023-04-03T08:42:25;20.98;;;3.92;;
45893;SDS011;31603;51.148;16.932;2023-04-03T08:44:58;28.00;;;5.82;;
45893;SDS011;31603;51.148;16.932;2023-04-03T08:47:27;6.80;;;2.60;;
45893;SDS011;31603;51.148;16.932;2023-04-03T08:49:55;6.43;;;2.25;;
45893;SDS011;31603;51.148;16.932;2023-04-03T08:52:25;4.95;;;1.70;;
45893;SDS011;31603;51.148;16.932;2023-04-03T08:54:54;5.28;;;1.73;;
45893;SDS011;31603;51.148;16.932;2023-04-03T08:57:26;6.10;;;1.83;;
45893;SDS011;31603;51.148;16.932;2023-04-03T08:59:54;4.30;;;1.42;;
45893;SDS011;31603;51.148;16.932;2023-04-03T09:02:25;5.25;;;1.60;;
45893;SDS011;31603;51.148;16.932;2023-04-03T09:04:53;4.75;;;1.60;;
45893;SDS011;31603;51.148;16.932;2023-04-03T09:07:35;4.45;;;1.73;;
45893;SDS011;31603;51.148;16.932;2023-04-03T09:10:23;6.45;;;3.20;;
45893;SDS011;31603;51.148;16.932;2023-04-03T09:15:47;5.95;;;2.17;;
45893;SDS011;31603;51.148;16.932;2023-04-03T09:18:17;2.92;;;1.77;;
45893;SDS011;31603;51.148;16.932;2023-04-03T09:20:46;4.95;;;1.98;;
45893;SDS011;31603;51.148;16.932;2023-04-03T09:23:18;6.15;;;1.83;;
45893;SDS011;31603;51.148;16.932;2023-04-03T09:25:45;3.05;;;1.80;;
45893;SDS011;31603;51.148;16.932;2023-04-03T09:28:12;3.42;;;1.80;;
45893;SDS011;31603;51.148;16.932;2023-04-03T09:30:40;4.28;;;1.90;;
45893;SDS011;31603;51.148;16.932;2023-04-03T09:33:11;6.47;;;1.75;;
45893;SDS011;31603;51.148;16.932;2023-04-03T09:35:50;5.30;;;2.38;;
45893;SDS011;31603;51.148;16.932;2023-04-03T09:38:18;3.42;;;1.88;;
45893;SDS011;31603;51.148;16.932;2023-04-03T09:41:04;5.97;;;2.75;;
45893;SDS011;31603;51.148;16.932;2023-04-03T09:43:34;2.05;;;1.52;;
45893;SDS011;31603;51.148;16.932;2023-04-03T09:48:50;2.38;;;1.30;;
45893;SDS011;31603;51.148;16.932;2023-04-03T09:51:17;4.40;;;1.58;;
45893;SDS011;31603;51.148;16.932;2023-04-03T09:53:43;3.72;;;1.45;;
45893;SDS011;31603;51.148;16.932;2023-04-03T09:56:18;2.80;;;1.30;;
45893;SDS011;31603;51.148;16.932;2023-04-03T09:58:48;3.47;;;1.73;;
45893;SDS011;31603;51.148;16.932;2023-04-03T10:01:29;6.17;;;2.00;;
45893;SDS011;31603;51.148;16.932;2023-04-03T10:06:53;3.88;;;1.55;;
45893;SDS011;31603;51.148;16.932;2023-04-03T10:09:21;3.80;;;1.80;;
45893;SDS011;31603;51.148;16.932;2023-04-03T10:11:58;4.32;;;2.67;;
45893;SDS011;31603;51.148;16.932;2023-04-03T10:14:32;6.03;;;2.80;;
45893;SDS011;31603;51.148;16.932;2023-04-03T10:17:02;6.78;;;3.03;;
45893;SDS011;31603;51.148;16.932;2023-04-03T10:19:44;3.50;;;1.83;;
45893;SDS011;31603;51.148;16.932;2023-04-03T10:22:29;3.90;;;1.50;;
45893;SDS011;31603;51.148;16.932;2023-04-03T10:25:02;3.75;;;1.50;;
45893;SDS011;31603;51.148;16.932;2023-04-03T10:27:52;3.95;;;1.90;;
45893;SDS011;31603;51.148;16.932;2023-04-03T10:30:30;3.67;;;1.90;;
45893;SDS011;31603;51.148;16.932;2023-04-03T10:33:05;4.78;;;1.70;;
45893;SDS011;31603;51.148;16.932;2023-04-03T10:35:39;2.97;;;1.80;;
45893;SDS011;31603;51.148;16.932;2023-04-03T10:38:31;5.93;;;1.63;;
45893;SDS011;31603;51.148;16.932;2023-04-03T10:40:59;2.50;;;1.33;;
45893;SDS011;31603;51.148;16.932;2023-04-03T10:43:31;3.85;;;1.67;;
45893;SDS011;31603;51.148;16.932;2023-04-03T10:46:06;2.70;;;1.60;;
45893;SDS011;31603;51.148;16.932;2023-04-03T10:48:51;7.45;;;2.50;;
45893;SDS011;31603;51.148;16.932;2023-04-03T10:51:32;6.93;;;2.80;;
45893;SDS011;31603;51.148;16.932;2023-04-03T10:56:51;14.90;;;4.22;;
45893;SDS011;31603;51.148;16.932;2023-04-03T10:59:23;8.65;;;2.75;;
45893;SDS011;31603;51.148;16.932;2023-04-03T11:01:52;9.98;;;3.72;;
45893;SDS011;31603;51.148;16.932;2023-04-03T11:04:19;6.22;;;2.47;;
45893;SDS011;31603;51.148;16.932;2023-04-03T11:06:52;9.35;;;3.20;;
45893;SDS011;31603;51.148;16.932;2023-04-03T11:09:25;9.73;;;3.28;;
45893;SDS011;31603;51.148;16.932;2023-04-03T11:11:55;4.60;;;2.38;;
45893;SDS011;31603;51.148;16.932;2023-04-03T11:14:24;5.03;;;2.40;;
45893;SDS011;31603;51.148;16.932;2023-04-03T11:16:53;4.28;;;1.60;;
45893;SDS011;31603;51.148;16.932;2023-04-03T11:19:27;6.78;;;2.63;;
45893;SDS011;31603;51.148;16.932;2023-04-03T11:21:56;5.60;;;2.28;;
45893;SDS011;31603;51.148;16.932;2023-04-03T11:24:29;4.68;;;1.70;;
45893;SDS011;31603;51.148;16.932;2023-04-03T11:27:00;3.45;;;1.58;;
45893;SDS011;31603;51.148;16.932;2023-04-03T11:29:32;4.63;;;2.58;;
45893;SDS011;31603;51.148;16.932;2023-04-03T11:32:09;3.67;;;1.83;;
45893;SDS011;31603;51.148;16.932;2023-04-03T11:34:39;2.28;;;1.45;;
45893;SDS011;31603;51.148;16.932;2023-04-03T11:37:31;3.25;;;2.03;;
45893;SDS011;31603;51.148;16.932;2023-04-03T11:40:00;3.80;;;1.52;;
45893;SDS011;31603;51.148;16.932;2023-04-03T11:45:50;3.70;;;1.73;;
45893;SDS011;31603;51.148;16.932;2023-04-03T11:56:29;2.90;;;1.77;;
45893;SDS011;31603;51.148;16.932;2023-04-03T12:07:37;2.78;;;1.73;;
45893;SDS011;31603;51.148;16.932;2023-04-03T12:10:16;7.03;;;2.03;;
45893;SDS011;31603;51.148;16.932;2023-04-03T12:12:57;7.10;;;2.70;;
45893;SDS011;31603;51.148;16.932;2023-04-03T12:24:36;6.30;;;3.05;;
45893;SDS011;31603;51.148;16.932;2023-04-03T12:27:08;4.57;;;1.80;;
45893;SDS011;31603;51.148;16.932;2023-04-03T12:29:51;3.15;;;1.63;;
45893;SDS011;31603;51.148;16.932;2023-04-03T12:32:35;4.97;;;2.15;;
45893;SDS011;31603;51.148;16.932;2023-04-03T12:35:24;6.07;;;2.20;;
45893;SDS011;31603;51.148;16.932;2023-04-03T12:38:01;4.10;;;2.08;;
45893;SDS011;31603;51.148;16.932;2023-04-03T12:40:53;5.63;;;2.85;;
45893;SDS011;31603;51.148;16.932;2023-04-03T12:43:40;4.47;;;2.47;;
45893;SDS011;31603;51.148;16.932;2023-04-03T12:46:23;3.88;;;1.90;;
45893;SDS011;31603;51.148;16.932;2023-04-03T12:48:50;4.65;;;2.45;;
45893;SDS011;31603;51.148;16.932;2023-04-03T12:51:21;4.10;;;2.30;;
45893;SDS011;31603;51.148;16.932;2023-04-03T12:53:51;3.97;;;2.17;;
45893;SDS011;31603;51.148;16.932;2023-04-03T12:56:24;6.97;;;2.70;;
45893;SDS011;31603;51.148;16.932;2023-04-03T12:58:52;5.78;;;2.65;;
45893;SDS011;31603;51.148;16.932;2023-04-03T13:01:18;6.53;;;3.03;;
45893;SDS011;31603;51.148;16.932;2023-04-03T13:03:50;6.47;;;2.80;;
45893;SDS011;31603;51.148;16.932;2023-04-03T13:08:50;2.58;;;1.73;;
45893;SDS011;31603;51.148;16.932;2023-04-03T13:11:32;2.92;;;1.65;;
45893;SDS011;31603;51.148;16.932;2023-04-03T13:14:37;5.95;;;2.92;;
45893;SDS011;31603;51.148;16.932;2023-04-03T13:17:24;5.72;;;2.78;;
45893;SDS011;31603;51.148;16.932;2023-04-03T13:19:50;5.38;;;2.30;;
45893;SDS011;31603;51.148;16.932;2023-04-03T13:22:25;3.22;;;2.10;;
45893;SDS011;31603;51.148;16.932;2023-04-03T13:24:52;5.38;;;2.40;;
45893;SDS011;31603;51.148;16.932;2023-04-03T13:27:35;4.60;;;1.88;;
45893;SDS011;31603;51.148;16.932;2023-04-03T13:33:03;7.90;;;2.70;;
45893;SDS011;31603;51.148;16.932;2023-04-03T13:35:47;3.95;;;2.38;;
45893;SDS011;31603;51.148;16.932;2023-04-03T13:38:24;7.78;;;3.38;;
45893;SDS011;31603;51.148;16.932;2023-04-03T13:40:52;4.13;;;2.40;;
45893;SDS011;31603;51.148;16.932;2023-04-03T13:43:27;7.55;;;2.10;;
45893;SDS011;31603;51.148;16.932;2023-04-03T13:49:18;5.07;;;2.92;;
45893;SDS011;31603;51.148;16.932;2023-04-03T13:51:44;4.10;;;2.40;;
45893;SDS011;31603;51.148;16.932;2023-04-03T13:54:16;3.80;;;2.40;;
45893;SDS011;31603;51.148;16.932;2023-04-03T13:56:56;4.50;;;1.80;;
45893;SDS011;31603;51.148;16.932;2023-04-03T13:59:29;3.42;;;2.00;;
45893;SDS011;31603;51.148;16.932;2023-04-03T14:02:09;6.05;;;1.60;;
45893;SDS011;31603;51.148;16.932;2023-04-03T14:04:50;3.50;;;1.55;;
45893;SDS011;31603;51.148;16.932;2023-04-03T14:07:18;2.83;;;1.70;;
45893;SDS011;31603;51.148;16.932;2023-04-03T14:09:45;3.50;;;2.20;;
45893;SDS011;31603;51.148;16.932;2023-04-03T14:12:14;3.80;;;2.65;;
45893;SDS011;31603;51.148;16.932;2023-04-03T14:14:44;7.43;;;2.58;;
45893;SDS011;31603;51.148;16.932;2023-04-03T14:17:16;7.50;;;3.38;;
45893;SDS011;31603;51.148;16.932;2023-04-03T14:19:43;17.30;;;4.70;;
45893;SDS011;31603;51.148;16.932;2023-04-03T14:22:13;11.10;;;4.30;;
45893;SDS011;31603;51.148;16.932;2023-04-03T14:24:40;7.90;;;2.45;;
45893;SDS011;31603;51.148;16.932;2023-04-03T14:27:10;4.28;;;2.22;;
45893;SDS011;31603;51.148;16.932;2023-04-03T14:29:42;4.25;;;2.13;;
45893;SDS011;31603;51.148;16.932;2023-04-03T14:32:12;3.97;;;1.77;;
45893;SDS011;31603;51.148;16.932;2023-04-03T14:34:39;3.25;;;1.80;;
45893;SDS011;31603;51.148;16.932;2023-04-03T14:37:05;2.67;;;1.70;;
45893;SDS011;31603;51.148;16.932;2023-04-03T14:39:36;2.90;;;2.10;;
45893;SDS011;31603;51.148;16.932;2023-04-03T14:42:03;4.22;;;2.15;;
45893;SDS011;31603;51.148;16.932;2023-04-03T14:44:30;6.43;;;3.03;;
45893;SDS011;31603;51.148;16.932;2023-04-03T14:46:56;7.82;;;3.10;;
45893;SDS011;31603;51.148;16.932;2023-04-03T14:49:24;3.65;;;2.17;;
45893;SDS011;31603;51.148;16.932;2023-04-03T14:51:51;8.18;;;3.75;;
45893;SDS011;31603;51.148;16.932;2023-04-03T14:54:18;5.68;;;2.40;;
45893;SDS011;31603;51.148;16.932;2023-04-03T14:59:47;6.88;;;3.38;;
45893;SDS011;31603;51.148;16.932;2023-04-03T15:02:22;6.53;;;3.00;;
45893;SDS011;31603;51.148;16.932;2023-04-03T15:04:50;6.13;;;2.65;;
45893;SDS011;31603;51.148;16.932;2023-04-03T15:07:16;5.55;;;2.20;;
45893;SDS011;31603;51.148;16.932;2023-04-03T15:09:49;4.97;;;2.55;;
45893;SDS011;31603;51.148;16.932;2023-04-03T15:12:24;6.57;;;2.05;;
45893;SDS011;31603;51.148;16.932;2023-04-03T15:14:53;5.15;;;1.83;;
45893;SDS011;31603;51.148;16.932;2023-04-03T15:17:21;7.80;;;2.30;;
45893;SDS011;31603;51.148;16.932;2023-04-03T15:19:49;3.30;;;1.90;;
45893;SDS011;31603;51.148;16.932;2023-04-03T15:22:18;12.00;;;5.40;;
45893;SDS011;31603;51.148;16.932;2023-04-03T15:24:45;5.40;;;2.88;;
45893;SDS011;31603;51.148;16.932;2023-04-03T15:27:13;4.30;;;2.47;;
45893;SDS011;31603;51.148;16.932;2023-04-03T15:29:41;9.50;;;4.93;;
45893;SDS011;31603;51.148;16.932;2023-04-03T15:32:09;14.43;;;8.57;;
45893;SDS011;31603;51.148;16.932;2023-04-03T15:34:36;19.00;;;10.57;;
45893;SDS011;31603;51.148;16.932;2023-04-03T15:37:02;7.88;;;5.45;;
45893;SDS011;31603;51.148;16.932;2023-04-03T15:39:31;4.57;;;2.30;;